Time;durP1;ratioP1;P1;durP2;ratioP2;P2;SDS_P1;SDS_P2;PMS_P1;PMS_P2;Temp;Humidity;BMP_temperature;BMP_pressure;BME280_temperature;BME280_humidity;BME280_pressure;Samples;Min_cycle;Max_cycle;Signal;HPM_P1;HPM_P2
2021/11/28 00:01:09;;;;;;;0.40;0.40;;;;;;;3.32;100.00;98152.13;5042581;28;20470;-50
2021/11/28 00:03:36;;;;;;;0.20;0.10;;;;;;;3.25;100.00;98140.97;5056517;28;20502;-49
2021/11/28 00:06:06;;;;;;;0.20;0.10;;;;;;;3.32;100.00;98144.25;5042681;28;20504;-50
2021/11/28 00:11:43;;;;;;;0.30;0.20;;;;;;;3.25;100.00;98147.06;4994346;28;20527;-50
2021/11/28 00:14:13;;;;;;;0.53;0.53;;;;;;;3.23;100.00;98148.03;5028988;28;20505;-50
2021/11/28 00:16:40;;;;;;;0.20;0.10;;;;;;;3.26;100.00;98145.31;5055815;28;20443;-50
2021/11/28 00:19:07;;;;;;;0.20;0.10;;;;;;;3.26;100.00;98137.44;5049624;28;20457;-50
2021/11/28 00:21:36;;;;;;;0.20;0.10;;;;;;;3.21;100.00;98150.72;5048871;28;20520;-49
2021/11/28 00:24:03;;;;;;;0.20;0.10;;;;;;;3.52;100.00;98149.66;5029049;28;20454;-50
2021/11/28 00:26:30;;;;;;;0.37;0.37;;;;;;;3.38;100.00;98146.66;5055200;28;20451;-49
2021/11/28 00:28:57;;;;;;;0.20;0.10;;;;;;;3.30;100.00;98149.56;5042728;28;20479;-49
2021/11/28 00:31:23;;;;;;;0.20;0.10;;;;;;;3.56;100.00;98151.28;5055326;28;20509;-49
2021/11/28 00:33:50;;;;;;;0.20;0.10;;;;;;;3.53;100.00;98154.88;5055685;28;20451;-50
2021/11/28 00:36:17;;;;;;;0.20;0.10;;;;;;;3.46;100.00;98155.16;5041258;28;20948;-49
2021/11/28 00:38:43;;;;;;;0.20;0.10;;;;;;;3.41;100.00;98157.91;5043481;28;20496;-50
2021/11/28 00:41:10;;;;;;;1.40;1.40;;;;;;;3.33;100.00;98159.97;5073329;28;20547;-50
2021/11/28 00:43:37;;;;;;;0.20;0.10;;;;;;;3.36;100.00;98159.00;5046666;28;20491;-49
2021/11/28 00:46:03;;;;;;;0.20;0.10;;;;;;;3.38;100.00;98165.03;5050420;28;21001;-49
2021/11/28 00:48:31;;;;;;;0.20;0.17;;;;;;;3.27;100.00;98158.38;5054918;28;20498;-50
2021/11/28 00:53:58;;;;;;;0.20;0.10;;;;;;;3.30;100.00;98159.22;5021437;28;20478;-49
2021/11/28 00:56:24;;;;;;;0.30;0.30;;;;;;;3.26;100.00;98158.44;5017354;28;20818;-50
2021/11/28 00:58:51;;;;;;;0.30;0.30;;;;;;;3.12;100.00;98151.03;5047830;28;20451;-50
2021/11/28 01:01:19;;;;;;;0.20;0.10;;;;;;;3.12;100.00;98150.16;5047538;28;20512;-49
2021/11/28 01:03:46;;;;;;;0.20;0.20;;;;;;;3.24;100.00;98152.38;5047990;28;20478;-49
2021/11/28 01:06:13;;;;;;;0.20;0.10;;;;;;;3.08;100.00;98154.66;5034581;28;20490;-49
2021/11/28 01:08:40;;;;;;;0.30;0.20;;;;;;;3.14;100.00;98158.84;5041015;28;20534;-50
2021/11/28 01:11:07;;;;;;;0.20;0.10;;;;;;;3.21;100.00;98165.63;5040921;28;20988;-49
2021/11/28 01:13:33;;;;;;;0.20;0.10;;;;;;;3.23;100.00;98174.28;5035274;28;20451;-49
2021/11/28 01:16:00;;;;;;;0.20;0.10;;;;;;;3.17;100.00;98169.25;5054564;28;20455;-49
2021/11/28 01:18:28;;;;;;;0.20;0.10;;;;;;;3.21;100.00;98173.50;5023548;28;20448;-49
2021/11/28 01:20:55;;;;;;;0.20;0.10;;;;;;;3.16;100.00;98184.16;5054009;28;20471;-49
2021/11/28 01:23:21;;;;;;;0.30;0.20;;;;;;;3.05;100.00;98188.03;5044512;28;20513;-49
2021/11/28 01:25:48;;;;;;;0.20;0.10;;;;;;;3.01;100.00;98178.53;5046344;28;20861;-49
2021/11/28 01:28:15;;;;;;;0.20;0.10;;;;;;;3.07;100.00;98183.59;5049087;28;20443;-50
2021/11/28 01:30:42;;;;;;;0.20;0.10;;;;;;;3.25;100.00;98188.22;5053888;28;20987;-49
2021/11/28 01:33:08;;;;;;;0.20;0.13;;;;;;;3.24;100.00;98179.50;5054236;28;20723;-50
2021/11/28 01:35:35;;;;;;;0.30;0.20;;;;;;;3.35;100.00;98180.91;5053796;28;20451;-49
2021/11/28 01:38:03;;;;;;;0.20;0.10;;;;;;;3.34;100.00;98180.06;5051134;28;20451;-49
2021/11/28 01:40:30;;;;;;;0.20;0.10;;;;;;;3.32;100.00;98179.25;5065944;28;20478;-49
2021/11/28 01:43:05;;;;;;;0.20;0.10;;;;;;;3.39;100.00;98180.75;5057987;28;20481;-50
2021/11/28 01:45:34;;;;;;;0.20;0.10;;;;;;;3.46;100.00;98178.78;5054444;28;20442;-50
2021/11/28 01:48:05;;;;;;;0.20;0.10;;;;;;;3.49;100.00;98183.94;5036307;28;20501;-49
2021/11/28 01:50:33;;;;;;;0.20;0.10;;;;;;;3.46;100.00;98177.00;5033952;28;20554;-50
2021/11/28 01:53:01;;;;;;;0.20;0.10;;;;;;;3.45;100.00;98183.19;5035499;28;20972;-50
2021/11/28 01:55:30;;;;;;;0.30;0.20;;;;;;;3.43;100.00;98177.13;5041343;28;20505;-50
2021/11/28 01:57:58;;;;;;;0.20;0.10;;;;;;;3.44;100.00;98177.97;5033600;28;20455;-50
2021/11/28 02:00:29;;;;;;;0.20;0.10;;;;;;;3.44;100.00;98177.97;5033581;28;20588;-50
2021/11/28 02:02:57;;;;;;;0.20;0.10;;;;;;;3.45;100.00;98179.69;5040796;28;20522;-50
2021/11/28 02:05:25;;;;;;;0.20;0.10;;;;;;;3.48;100.00;98179.59;5040294;28;20948;-50
2021/11/28 02:07:52;;;;;;;0.20;0.10;;;;;;;3.46;100.00;98184.91;5053155;28;20457;-50
2021/11/28 02:10:19;;;;;;;0.37;0.37;;;;;;;3.46;100.00;98177.00;5053093;28;20494;-50
2021/11/28 02:12:46;;;;;;;0.20;0.20;;;;;;;3.43;100.00;98182.38;5053043;28;20958;-50
2021/11/28 02:15:16;;;;;;;0.20;0.10;;;;;;;3.46;100.00;98181.41;5053334;28;20451;-50
2021/11/28 02:17:44;;;;;;;0.20;0.10;;;;;;;3.51;100.00;98179.47;5053176;28;20451;-50
2021/11/28 02:20:12;;;;;;;0.20;0.10;;;;;;;3.58;100.00;98180.13;5039323;28;20820;-50
2021/11/28 02:22:39;;;;;;;0.20;0.10;;;;;;;3.56;100.00;98172.28;5043704;28;20451;-50
2021/11/28 02:25:09;;;;;;;0.20;0.10;;;;;;;3.58;100.00;98174.88;5049665;28;20498;-50
2021/11/28 02:27:37;;;;;;;0.20;0.10;;;;;;;3.54;100.00;98171.47;5033270;28;20455;-50
2021/11/28 02:30:06;;;;;;;0.20;0.10;;;;;;;3.55;100.00;98174.06;5037329;28;20855;-49
2021/11/28 02:32:33;;;;;;;0.20;0.10;;;;;;;3.51;100.00;98177.69;5052818;28;21097;-50
2021/11/28 02:35:00;;;;;;;0.20;0.10;;;;;;;3.52;100.00;98175.94;5053255;28;20459;-50
2021/11/28 02:37:27;;;;;;;0.20;0.10;;;;;;;3.59;100.00;98177.44;5053214;28;20443;-48
2021/11/28 02:39:53;;;;;;;0.20;0.10;;;;;;;3.57;100.00;98174.03;5063712;28;20967;-48
2021/11/28 02:42:21;;;;;;;0.20;0.10;;;;;;;3.47;100.00;98180.50;5052189;28;20443;-48
2021/11/28 02:44:48;;;;;;;0.20;0.10;;;;;;;3.39;100.00;98172.00;5051566;28;20447;-49
2021/11/28 02:47:14;;;;;;;0.20;0.10;;;;;;;3.41;100.00;98165.78;5053859;28;20508;-50
2021/11/28 02:49:41;;;;;;;0.20;0.10;;;;;;;3.37;100.00;98171.22;5034327;28;20522;-50
2021/11/28 02:52:11;;;;;;;0.20;0.10;;;;;;;3.38;100.00;98168.53;5033016;28;20456;-50
2021/11/28 02:54:38;;;;;;;0.20;0.20;;;;;;;3.38;100.00;98171.16;5042643;28;20486;-50
2021/11/28 02:57:08;;;;;;;0.30;0.10;;;;;;;3.37;100.00;98171.22;5033163;28;20452;-50
2021/11/28 02:59:35;;;;;;;0.20;0.10;;;;;;;3.32;100.00;98175.78;5051816;28;20439;-50
2021/11/28 03:02:03;;;;;;;0.20;0.10;;;;;;;3.30;100.00;98185.47;5039762;28;20450;-50
2021/11/28 03:04:29;;;;;;;0.20;0.20;;;;;;;3.26;100.00;98180.28;5045788;28;21022;-50
2021/11/28 03:06:56;;;;;;;0.20;0.10;;;;;;;3.19;100.00;98186.66;5046190;28;20455;-50
2021/11/28 03:09:23;;;;;;;1.97;1.07;;;;;;;3.22;100.00;98189.19;5045724;28;20488;-50
2021/11/28 03:11:50;;;;;;;0.20;0.10;;;;;;;3.30;100.00;98186.31;5032580;28;20594;-50
2021/11/28 03:14:16;;;;;;;0.20;0.20;;;;;;;3.31;100.00;98187.19;5014915;28;20475;-50
2021/11/28 03:16:43;;;;;;;0.20;0.10;;;;;;;3.24;100.00;98192.63;5032446;28;20462;-50
2021/11/28 03:19:09;;;;;;;1.40;1.40;;;;;;;3.38;100.00;98188.69;5039668;28;20450;-50
2021/11/28 03:21:38;;;;;;;0.20;0.10;;;;;;;3.57;100.00;98195.03;5038921;28;20521;-50
2021/11/28 03:24:06;;;;;;;0.20;0.10;;;;;;;3.70;100.00;98193.72;5049204;28;20447;-50
2021/11/28 03:26:42;;;;;;;0.20;0.10;;;;;;;3.62;100.00;98193.09;5052316;28;20509;-49
2021/11/28 03:29:18;;;;;;;0.20;0.10;;;;;;;3.52;100.00;98183.81;5052633;28;20482;-47
2021/11/28 03:31:47;;;;;;;0.20;0.10;;;;;;;3.45;100.00;98191.06;5034875;28;20471;-48
2021/11/28 03:34:16;;;;;;;0.30;0.20;;;;;;;3.44;100.00;98185.84;5032864;28;20936;-49
2021/11/28 03:36:49;;;;;;;0.20;0.10;;;;;;;3.44;100.00;98189.34;5032114;28;20505;-50
2021/11/28 03:39:18;;;;;;;0.20;0.10;;;;;;;3.39;100.00;98187.75;5045538;28;20443;-50
2021/11/28 03:41:48;;;;;;;0.57;0.50;;;;;;;3.30;100.00;98188.09;5058994;28;20976;-50
2021/11/28 03:44:15;;;;;;;0.27;0.20;;;;;;;3.31;100.00;98190.66;5045340;28;20451;-50
2021/11/28 03:46:41;;;;;;;0.60;0.60;;;;;;;3.48;100.00;98185.69;5047259;28;20484;-48
2021/11/28 03:49:08;;;;;;;0.20;0.17;;;;;;;3.34;100.00;98187.94;5045600;28;20534;-48
2021/11/28 03:51:35;;;;;;;0.20;0.10;;;;;;;3.31;100.00;98189.81;5053067;28;20481;-48
2021/11/28 03:54:04;;;;;;;0.20;0.20;;;;;;;3.33;100.00;98188.84;5041961;28;20459;-48
2021/11/28 03:56:31;;;;;;;0.20;0.10;;;;;;;3.34;100.00;98192.31;5039541;28;20451;-48
2021/11/28 03:58:58;;;;;;;0.20;0.10;;;;;;;3.37;100.00;98190.44;5038289;28;20455;-48
2021/11/28 04:01:25;;;;;;;0.20;0.10;;;;;;;3.39;100.00;98193.88;5041148;28;20876;-48
2021/11/28 04:03:52;;;;;;;0.67;0.67;;;;;;;3.43;100.00;98199.91;5042302;28;20451;-48
2021/11/28 04:06:21;;;;;;;0.30;0.27;;;;;;;3.44;100.00;98199.84;5048070;28;20462;-48
2021/11/28 04:08:50;;;;;;;0.20;0.10;;;;;;;3.58;100.00;98204.63;5035892;28;20451;-48
2021/11/28 04:11:17;;;;;;;0.30;0.30;;;;;;;3.53;100.00;98201.28;5035899;28;20492;-48
2021/11/28 04:13:44;;;;;;;0.20;0.10;;;;;;;3.58;100.00;98203.78;5035417;28;20822;-48
2021/11/28 04:16:11;;;;;;;0.20;0.13;;;;;;;3.64;100.00;98195.66;5035548;28;20456;-48
2021/11/28 04:18:39;;;;;;;0.20;0.10;;;;;;;3.74;100.00;98202.31;5037533;28;20451;-48
2021/11/28 04:21:06;;;;;;;0.20;0.10;;;;;;;3.67;100.00;98192.94;5046230;28;21051;-48
2021/11/28 04:23:33;;;;;;;0.20;0.10;;;;;;;3.70;100.00;98200.69;5051588;28;20455;-50
2021/11/28 04:25:59;;;;;;;0.20;0.10;;;;;;;3.61;100.00;98195.78;5045946;28;20455;-48
2021/11/28 04:28:27;;;;;;;0.20;0.10;;;;;;;3.50;100.00;98198.78;5051697;28;20537;-48
2021/11/28 04:30:53;;;;;;;0.73;0.67;;;;;;;3.56;100.00;98190.66;5055226;28;20533;-48
2021/11/28 04:33:21;;;;;;;0.20;0.10;;;;;;;3.60;100.00;98196.69;5055411;28;20974;-48
2021/11/28 04:35:48;;;;;;;0.20;0.10;;;;;;;3.48;100.00;98200.59;5055029;28;21027;-48
2021/11/28 04:38:15;;;;;;;0.20;0.10;;;;;;;3.52;100.00;98196.94;5051535;28;20478;-48
2021/11/28 04:40:41;;;;;;;0.20;0.10;;;;;;;3.59;100.00;98197.59;5063814;28;20481;-48
2021/11/28 04:43:08;;;;;;;0.20;0.10;;;;;;;3.68;100.00;98199.91;5053709;28;20796;-48
2021/11/28 04:45:34;;;;;;;0.60;0.60;;;;;;;3.76;100.00;98200.50;5045475;28;20475;-49
2021/11/28 04:48:01;;;;;;;0.30;0.20;;;;;;;3.66;100.00;98199.09;5055991;28;20450;-48
2021/11/28 04:50:28;;;;;;;4.03;0.53;;;;;;;3.78;100.00;98203.94;5055190;28;20490;-48
2021/11/28 04:52:54;;;;;;;0.20;0.10;;;;;;;3.88;100.00;98199.22;5054745;28;20446;-49
2021/11/28 04:55:21;;;;;;;0.20;0.10;;;;;;;3.88;100.00;98205.31;5043696;28;20448;-49
2021/11/28 04:57:47;;;;;;;0.20;0.10;;;;;;;3.97;100.00;98199.72;5038913;28;20944;-48
2021/11/28 05:00:22;;;;;;;0.20;0.10;;;;;;;3.69;100.00;98193.72;5042885;28;20463;-48
2021/11/28 05:02:49;;;;;;;0.20;0.10;;;;;;;3.61;100.00;98195.78;5048343;28;20446;-49
2021/11/28 05:05:16;;;;;;;0.20;0.10;;;;;;;3.61;100.00;98198.41;5047564;28;20446;-49
2021/11/28 05:07:43;;;;;;;0.20;0.10;;;;;;;3.58;100.00;98188.00;5041309;28;20443;-48
2021/11/28 05:10:10;;;;;;;0.20;0.10;;;;;;;3.49;100.00;98194.44;5054232;28;21003;-48
2021/11/28 05:12:37;;;;;;;1.07;1.07;;;;;;;3.52;100.00;98199.56;5053454;28;20995;-48
2021/11/28 05:15:04;;;;;;;2.10;2.10;;;;;;;3.36;100.00;98201.84;5054375;28;20501;-48
2021/11/28 05:17:31;;;;;;;0.20;0.10;;;;;;;3.39;100.00;98191.25;5054461;28;20454;-48
2021/11/28 05:19:58;;;;;;;0.30;0.30;;;;;;;3.62;100.00;98192.25;5041000;28;20464;-48
2021/11/28 05:22:25;;;;;;;0.20;0.10;;;;;;;3.60;100.00;98188.81;5047675;28;20459;-48
2021/11/28 05:24:52;;;;;;;0.30;0.20;;;;;;;3.48;100.00;98185.69;5051261;28;20572;-48
2021/11/28 05:27:19;;;;;;;0.20;0.10;;;;;;;3.37;100.00;98193.06;5041372;28;20479;-50
2021/11/28 05:29:46;;;;;;;0.20;0.10;;;;;;;3.36;100.00;98201.84;5054237;28;20494;-49
2021/11/28 05:32:14;;;;;;;0.20;0.10;;;;;;;3.34;100.00;98197.56;5054405;28;20500;-50
2021/11/28 05:34:41;;;;;;;0.20;0.10;;;;;;;3.33;100.00;98203.72;5054229;28;20509;-49
2021/11/28 05:37:07;;;;;;;0.20;0.10;;;;;;;3.36;100.00;98201.00;5054388;28;20478;-49
2021/11/28 05:39:34;;;;;;;0.20;0.10;;;;;;;3.36;100.00;98195.75;5049342;28;20939;-51
2021/11/28 05:42:01;;;;;;;0.20;0.10;;;;;;;3.42;100.00;98206.03;5065857;28;20447;-49
2021/11/28 05:44:28;;;;;;;0.20;0.10;;;;;;;3.26;100.00;98203.06;5040836;28;20964;-49
2021/11/28 05:46:55;;;;;;;0.20;0.10;;;;;;;3.31;100.00;98197.69;5045908;28;20505;-49
2021/11/28 05:49:21;;;;;;;0.20;0.10;;;;;;;3.39;100.00;98200.88;5034360;28;20448;-49
2021/11/28 05:51:48;;;;;;;0.20;0.10;;;;;;;3.31;100.00;98203.78;5034100;28;20527;-49
2021/11/28 05:54:15;;;;;;;0.20;0.10;;;;;;;3.26;100.00;98198.66;5043268;28;20451;-49
2021/11/28 05:56:41;;;;;;;0.20;0.10;;;;;;;3.20;100.00;98201.50;5033376;28;21027;-49
2021/11/28 05:59:08;;;;;;;0.30;0.20;;;;;;;3.24;100.00;98205.75;5046915;28;20451;-49
2021/11/28 06:01:35;;;;;;;0.20;0.10;;;;;;;3.29;100.00;98200.38;5043129;28;20505;-49
2021/11/28 06:04:02;;;;;;;0.20;0.10;;;;;;;3.22;100.00;98204.09;5039882;28;20940;-49
2021/11/28 06:06:28;;;;;;;0.20;0.20;;;;;;;3.27;100.00;98208.25;5043216;28;20875;-49
2021/11/28 06:08:55;;;;;;;0.20;0.10;;;;;;;3.21;100.00;98202.38;5049536;28;20447;-49
2021/11/28 06:11:22;;;;;;;0.20;0.10;;;;;;;3.15;100.00;98208.69;5053089;28;21004;-49
2021/11/28 06:13:51;;;;;;;0.20;0.10;;;;;;;3.09;100.00;98203.63;5053082;28;21203;-49
2021/11/28 06:16:18;;;;;;;0.20;0.10;;;;;;;2.95;100.00;98204.06;5053065;28;20508;-49
2021/11/28 06:18:45;;;;;;;0.20;0.10;;;;;;;3.11;100.00;98208.81;5048709;28;20527;-49
2021/11/28 06:21:12;;;;;;;0.20;0.10;;;;;;;2.96;100.00;98204.91;5043792;28;20972;-49
2021/11/28 06:23:38;;;;;;;0.57;0.53;;;;;;;2.91;100.00;98209.47;5041803;28;20451;-49
2021/11/28 06:26:05;;;;;;;0.20;0.10;;;;;;;2.82;100.00;98207.97;5042422;28;20448;-49
2021/11/28 06:28:33;;;;;;;0.20;0.10;;;;;;;2.71;100.00;98199.56;5051996;28;20529;-49
2021/11/28 06:31:00;;;;;;;0.20;0.10;;;;;;;2.65;100.00;98211.13;5053381;28;20522;-48
2021/11/28 06:33:27;;;;;;;0.20;0.20;;;;;;;2.93;100.00;98205.88;5053398;28;20458;-50
2021/11/28 06:35:54;;;;;;;0.20;0.10;;;;;;;2.91;100.00;98212.09;5053472;28;20528;-49
2021/11/28 06:38:21;;;;;;;0.20;0.10;;;;;;;2.87;100.00;98205.19;5047854;28;20448;-49
2021/11/28 06:40:47;;;;;;;0.30;0.30;;;;;;;2.86;100.00;98216.59;5063179;28;20990;-49
2021/11/28 06:43:14;;;;;;;0.40;0.40;;;;;;;2.90;100.00;98203.34;5050107;28;20522;-49
2021/11/28 06:45:41;;;;;;;0.20;0.10;;;;;;;2.77;100.00;98211.66;5044812;28;20473;-49
2021/11/28 06:48:08;;;;;;;0.20;0.10;;;;;;;2.73;100.00;98216.13;5054596;28;20487;-48
2021/11/28 06:50:35;;;;;;;0.20;0.10;;;;;;;2.75;100.00;98216.09;5052972;28;20494;-49
2021/11/28 06:53:03;;;;;;;0.20;0.10;;;;;;;2.55;100.00;98216.69;5053412;28;20451;-49
2021/11/28 06:55:31;;;;;;;0.20;0.20;;;;;;;2.58;100.00;98225.31;5041269;28;20451;-49
2021/11/28 06:57:58;;;;;;;0.20;0.10;;;;;;;2.55;100.00;98219.31;5038806;28;20447;-49
2021/11/28 07:00:25;;;;;;;0.20;0.10;;;;;;;2.51;100.00;98215.94;5053312;28;20467;-49
2021/11/28 07:02:52;;;;;;;0.20;0.10;;;;;;;2.52;100.00;98222.03;5039716;28;20539;-49
2021/11/28 07:05:18;;;;;;;0.20;0.10;;;;;;;2.51;100.00;98231.66;5040193;28;20452;-48
2021/11/28 07:07:45;;;;;;;0.20;0.10;;;;;;;2.51;100.00;98231.66;5046364;28;20456;-49
2021/11/28 07:10:12;;;;;;;0.20;0.20;;;;;;;2.65;100.00;98239.97;5032620;28;20495;-49
2021/11/28 07:12:39;;;;;;;0.20;0.10;;;;;;;2.48;100.00;98254.50;5032497;28;20486;-49
2021/11/28 07:15:06;;;;;;;0.20;0.10;;;;;;;2.48;100.00;98251.88;5032442;28;20509;-49
2021/11/28 07:17:32;;;;;;;0.20;0.20;;;;;;;2.70;100.00;98252.94;5032302;28;20940;-49
2021/11/28 07:19:59;;;;;;;0.20;0.20;;;;;;;2.83;100.00;98249.03;5028032;28;20532;-49
2021/11/28 07:22:26;;;;;;;0.20;0.10;;;;;;;2.72;100.00;98253.75;5039737;28;20481;-49
2021/11/28 07:24:52;;;;;;;0.20;0.10;;;;;;;2.76;100.00;98257.16;5051593;28;20508;-49
2021/11/28 07:27:19;;;;;;;0.20;0.10;;;;;;;2.76;100.00;98257.16;5039347;28;20454;-49
2021/11/28 07:29:45;;;;;;;0.20;0.10;;;;;;;2.78;100.00;98257.97;5052057;28;20478;-49
2021/11/28 07:32:12;;;;;;;0.20;0.10;;;;;;;2.85;100.00;98262.97;5052214;28;20522;-49
2021/11/28 07:34:39;;;;;;;0.20;0.10;;;;;;;2.81;100.00;98250.84;5052135;28;20447;-49
2021/11/28 07:37:05;;;;;;;0.20;0.20;;;;;;;2.87;100.00;98258.53;5054774;28;20451;-49
2021/11/28 07:39:32;;;;;;;0.20;0.10;;;;;;;2.91;100.00;98267.19;5050890;28;20458;-50
2021/11/28 07:41:59;;;;;;;0.20;0.20;;;;;;;2.86;100.00;98271.69;5067823;28;20482;-49
2021/11/28 07:44:25;;;;;;;0.20;0.10;;;;;;;2.73;100.00;98279.06;5042735;28;20472;-49
2021/11/28 07:46:52;;;;;;;0.20;0.10;;;;;;;2.78;100.00;98273.69;5056490;28;21012;-49
2021/11/28 07:49:19;;;;;;;0.20;0.10;;;;;;;2.87;100.00;98286.53;5055685;28;20983;-48
2021/11/28 07:51:47;;;;;;;5.77;1.37;;;;;;;2.96;100.00;98281.88;5055776;28;20493;-48
2021/11/28 07:54:14;;;;;;;0.20;0.10;;;;;;;2.94;100.00;98291.56;5053223;28;20500;-48
2021/11/28 07:56:42;;;;;;;0.20;0.10;;;;;;;3.05;100.00;98287.75;5035666;28;20813;-48
2021/11/28 07:59:09;;;;;;;2.20;2.10;;;;;;;3.07;100.00;98289.41;5048744;28;20447;-48
2021/11/28 08:01:36;;;;;;;0.20;0.10;;;;;;;3.14;100.00;98290.94;5045411;28;20516;-48
2021/11/28 08:04:03;;;;;;;0.20;0.10;;;;;;;3.24;100.00;98288.88;5042596;28;20500;-49
2021/11/28 08:06:29;;;;;;;0.20;0.10;;;;;;;3.26;100.00;98280.06;5045565;28;20452;-48
2021/11/28 08:08:56;;;;;;;0.20;0.10;;;;;;;3.27;100.00;98281.78;5052736;28;20956;-48
2021/11/28 08:11:23;;;;;;;0.20;0.10;;;;;;;3.40;100.00;98281.38;5055990;28;20567;-48
2021/11/28 08:13:49;;;;;;;0.20;0.10;;;;;;;3.41;100.00;98283.94;5038841;28;20505;-49
2021/11/28 08:16:16;;;;;;;0.20;0.20;;;;;;;3.33;100.00;98282.50;5036210;28;20475;-48
2021/11/28 08:18:43;;;;;;;0.20;0.10;;;;;;;3.27;100.00;98280.91;5041801;28;20485;-49
2021/11/28 08:21:10;;;;;;;0.20;0.10;;;;;;;3.25;100.00;98282.72;5046746;28;20545;-49
2021/11/28 08:23:37;;;;;;;0.30;0.27;;;;;;;3.15;100.00;98291.78;5052007;28;20477;-48
2021/11/28 08:26:04;;;;;;;0.20;0.10;;;;;;;3.15;100.00;98295.31;5043415;28;20448;-48
2021/11/28 08:28:31;;;;;;;0.30;0.20;;;;;;;3.27;100.00;98286.16;5054030;28;20883;-48
2021/11/28 08:30:58;;;;;;;0.20;0.10;;;;;;;3.24;100.00;98294.13;5055306;28;20552;-48
2021/11/28 08:33:25;;;;;;;0.20;0.10;;;;;;;3.45;100.00;98282.97;5055086;28;20936;-48
2021/11/28 08:35:51;;;;;;;0.20;0.10;;;;;;;3.36;100.00;98283.25;5042761;28;20458;-48
2021/11/28 08:38:18;;;;;;;0.20;0.10;;;;;;;3.53;100.00;98295.84;5023883;28;20446;-48
2021/11/28 08:40:45;;;;;;;0.20;0.10;;;;;;;3.62;100.00;98292.06;5065256;28;20534;-48
2021/11/28 08:43:11;;;;;;;0.20;0.10;;;;;;;3.85;100.00;98293.00;5052236;28;20474;-48
2021/11/28 08:45:39;;;;;;;0.20;0.10;;;;;;;3.91;100.00;98296.34;5035368;28;20448;-49
2021/11/28 08:48:06;;;;;;;0.20;0.10;;;;;;;3.79;100.00;98301.09;5037990;28;20454;-48
2021/11/28 08:50:33;;;;;;;0.20;0.10;;;;;;;3.93;100.00;98302.41;5055341;28;20913;-49
2021/11/28 08:53:00;;;;;;;0.20;0.10;;;;;;;3.97;100.00;98302.22;5057697;28;20455;-48
2021/11/28 08:55:26;;;;;;;0.20;0.17;;;;;;;4.06;100.00;98306.31;5043553;28;20967;-49
2021/11/28 08:57:53;;;;;;;0.20;0.10;;;;;;;3.99;100.00;98308.31;5054071;28;20512;-48
2021/11/28 09:00:20;;;;;;;0.20;0.10;;;;;;;4.00;100.00;98301.28;5045929;28;20472;-49
2021/11/28 09:02:50;;;;;;;0.20;0.10;;;;;;;4.02;100.00;98316.09;5049915;28;20486;-48
2021/11/28 09:05:20;;;;;;;0.20;0.10;;;;;;;4.15;100.00;98314.75;5048508;28;20518;-49
2021/11/28 09:07:49;;;;;;;0.20;0.10;;;;;;;4.16;100.00;98315.63;5048785;28;20448;-49
2021/11/28 09:10:17;;;;;;;0.30;0.20;;;;;;;4.11;100.00;98313.16;5048283;28;20549;-49
2021/11/28 09:12:45;;;;;;;0.20;0.10;;;;;;;4.31;100.00;98312.44;5054296;28;20451;-49
2021/11/28 09:15:12;;;;;;;0.20;0.10;;;;;;;4.44;100.00;98315.50;5054117;28;20500;-49
2021/11/28 09:17:44;;;;;;;0.20;0.10;;;;;;;4.50;100.00;98322.31;5046325;28;20502;-49
2021/11/28 09:20:11;;;;;;;0.20;0.10;;;;;;;4.50;100.00;98322.31;5047181;28;20540;-48
2021/11/28 09:25:18;;;;;;;0.20;0.10;;;;;;;4.58;100.00;98331.66;5047574;28;20475;-48
2021/11/28 09:27:48;;;;;;;0.20;0.10;;;;;;;4.56;100.00;98327.38;5044777;28;20451;-49
2021/11/28 09:30:17;;;;;;;0.20;0.10;;;;;;;4.58;100.00;98330.78;5035550;28;20502;-49
2021/11/28 09:32:44;;;;;;;0.37;0.37;;;;;;;4.61;100.00;98333.31;5033708;28;20906;-49
2021/11/28 09:35:12;;;;;;;0.20;0.10;;;;;;;4.68;100.00;98332.19;5033467;28;20509;-49
2021/11/28 09:37:38;;;;;;;0.20;0.10;;;;;;;4.76;100.00;98332.75;5033769;28;20452;-49
2021/11/28 09:40:06;;;;;;;0.20;0.20;;;;;;;4.54;100.00;98337.09;5057724;28;20480;-49
2021/11/28 09:42:44;;;;;;;0.40;0.40;;;;;;;4.53;100.00;98333.59;5061694;28;20496;-49
2021/11/28 09:45:12;;;;;;;0.20;0.20;;;;;;;4.58;100.00;98330.78;5042115;28;20849;-49
2021/11/28 09:47:38;;;;;;;0.20;0.10;;;;;;;4.64;100.00;98328.78;5039163;28;20451;-49
2021/11/28 09:50:08;;;;;;;0.20;0.20;;;;;;;4.70;100.00;98327.72;5033432;28;20888;-49
2021/11/28 09:52:36;;;;;;;0.20;0.20;;;;;;;4.60;100.00;98331.59;5033188;28;20491;-48
2021/11/28 09:55:10;;;;;;;0.20;0.10;;;;;;;4.65;100.00;98325.22;5043810;28;20444;-49
2021/11/28 09:57:38;;;;;;;0.20;0.10;;;;;;;4.73;100.00;98333.72;5046715;28;20443;-49
2021/11/28 10:00:08;;;;;;;0.20;0.20;;;;;;;4.78;100.00;98328.28;5032627;28;20529;-49
2021/11/28 10:02:38;;;;;;;1.17;1.17;;;;;;;4.76;100.00;98333.59;5050728;28;20443;-48
2021/11/28 10:05:09;;;;;;;0.20;0.10;;;;;;;4.66;100.00;98328.72;5041847;28;20469;-49
2021/11/28 10:07:40;;;;;;;0.20;0.10;;;;;;;4.68;100.00;98322.50;5051858;28;21027;-48
2021/11/28 10:10:07;;;;;;;0.20;0.10;;;;;;;4.70;100.00;98325.09;5053096;28;20466;-49
2021/11/28 10:12:35;;;;;;;0.20;0.10;;;;;;;4.83;100.00;98318.47;5033196;28;20487;-49
2021/11/28 10:15:06;;;;;;;0.20;0.13;;;;;;;4.83;100.00;98317.59;5033038;28;20451;-49
2021/11/28 10:17:36;;;;;;;0.20;0.10;;;;;;;4.99;100.00;98316.09;5032844;28;20535;-48
2021/11/28 10:20:08;;;;;;;0.20;0.10;;;;;;;4.87;100.00;98317.41;5046055;28;20478;-49
2021/11/28 10:22:35;;;;;;;0.20;0.10;;;;;;;4.92;100.00;98307.56;5032725;28;20444;-49
2021/11/28 10:25:11;;;;;;;0.20;0.10;;;;;;;4.94;100.00;98315.44;5049249;28;20481;-49
2021/11/28 10:27:46;;;;;;;0.20;0.10;;;;;;;4.96;100.00;98311.81;5042543;28;20446;-49
2021/11/28 10:30:18;;;;;;;0.20;0.10;;;;;;;4.98;100.00;98307.34;5052701;28;20519;-49
2021/11/28 10:32:49;;;;;;;0.20;0.13;;;;;;;4.98;100.00;98311.75;5052923;28;20574;-49
2021/11/28 10:35:17;;;;;;;0.20;0.10;;;;;;;4.95;100.00;98302.19;5052874;28;20911;-49
2021/11/28 10:37:47;;;;;;;0.20;0.20;;;;;;;4.87;100.00;98304.25;5039535;28;21007;-49
2021/11/28 10:40:33;;;;;;;0.20;0.10;;;;;;;4.83;100.00;98302.66;5053607;28;20477;-49
2021/11/28 10:43:17;;;;;;;0.20;0.10;;;;;;;4.83;100.00;98302.66;5053897;28;20446;-49
2021/11/28 10:45:49;;;;;;;0.20;0.10;;;;;;;4.87;100.00;98306.03;5033300;28;20451;-49
2021/11/28 10:48:23;;;;;;;0.20;0.10;;;;;;;4.84;100.00;98304.38;5039534;28;20443;-49
2021/11/28 10:50:52;;;;;;;0.40;0.40;;;;;;;4.87;100.00;98301.63;5052456;28;20845;-49
2021/11/28 10:53:21;;;;;;;0.40;0.37;;;;;;;4.80;100.00;98302.78;5048934;28;20497;-49
2021/11/28 10:55:53;;;;;;;0.20;0.20;;;;;;;4.75;100.00;98302.94;5037422;28;20521;-49
2021/11/28 10:58:25;;;;;;;0.20;0.10;;;;;;;4.81;100.00;98296.59;5042961;28;20451;-49
2021/11/28 11:00:51;;;;;;;0.20;0.10;;;;;;;4.82;100.00;98302.72;5035789;28;20479;-48
2021/11/28 11:03:25;;;;;;;0.20;0.20;;;;;;;4.87;100.00;98301.63;5043373;28;20538;-48
2021/11/28 11:05:54;;;;;;;0.60;0.60;;;;;;;5.05;100.00;98300.06;5039329;28;20447;-49
2021/11/28 11:08:24;;;;;;;0.20;0.10;;;;;;;4.97;100.00;98295.09;5052724;28;20450;-49
2021/11/28 11:11:07;;;;;;;0.20;0.10;;;;;;;4.97;100.00;98296.88;5035257;28;20467;-49
2021/11/28 11:13:54;;;;;;;0.20;0.10;;;;;;;5.09;100.00;98293.78;5037754;28;20479;-49
2021/11/28 11:16:30;;;;;;;0.20;0.10;;;;;;;5.17;100.00;98290.81;5045595;28;20447;-49
2021/11/28 11:19:36;;;;;;;0.20;0.10;;;;;;;5.21;100.00;98297.72;5042538;28;20504;-49
2021/11/28 11:22:15;;;;;;;0.20;0.10;;;;;;;5.02;100.00;98292.28;5051767;28;20443;-49
2021/11/28 11:24:52;;;;;;;0.20;0.10;;;;;;;5.21;100.00;98297.72;5052731;28;20508;-49
2021/11/28 11:27:27;;;;;;;0.20;0.20;;;;;;;5.17;100.00;98296.09;5035964;28;20447;-49
2021/11/28 11:30:01;;;;;;;0.20;0.10;;;;;;;5.36;100.00;98302.38;5037855;28;20463;-49
2021/11/28 11:32:43;;;;;;;0.20;0.10;;;;;;;5.47;100.00;98300.16;5055684;28;20489;-49
2021/11/28 11:35:20;;;;;;;0.23;0.20;;;;;;;5.45;100.00;98311.66;5055544;28;20473;-49
2021/11/28 11:37:49;;;;;;;0.20;0.10;;;;;;;5.42;100.00;98296.84;5055268;28;20446;-49
2021/11/28 11:40:19;;;;;;;0.20;0.10;;;;;;;5.33;100.00;98305.09;5063145;28;20469;-49
2021/11/28 11:42:48;;;;;;;0.53;0.53;;;;;;;5.34;100.00;98305.06;5060395;28;20439;-48
2021/11/28 11:45:17;;;;;;;0.20;0.20;;;;;;;5.44;100.00;98300.28;5043647;28;20454;-49
2021/11/28 11:47:45;;;;;;;0.30;0.20;;;;;;;5.65;100.00;98296.78;5056156;28;20454;-50